Kezdőlap
METAR-TAF:

METAR-TAF

Repülőterek :

Subang Jaya, Malajzia

földrajzi szélesség: 03-07N, földrajzi hosszúság: 101-32E, magasság: 27 m

Jelenlegi meteorológiai megfigyelések

A jelentés 1 órával és 11 perccel ezelõtt készült, 01:00 UTC
Délkeleti szél 5 kt, keleti és déli között változik
Hőmérséklet 30°C
Páratartalom 75%
Légköri nyomás 1011 hPa
Látótávolság 10 km, vagy több
Kevés felhő 1800 lábon

METAR: WMSA 210100Z 14005KT 100V170 9999 FEW018 30/25 Q1011

Idő: 10:11 (02:11 UTC)

Előrejelzés

A jelentés 3 órával és 11 perccel ezelõtt készült, 23:00 UTC
Az előrejelzés 21-én 00 óra UTC és 22-én 00 óra UTC között érvényes
Különbözõ irányokból fújó szél 2 kt
Látótávolság 10 km, vagy több
Kevés felhő 1800 lábon

TAF: WMSA 202300Z 2100/2200 VRB02KT 9999 FEW018

Meteorológiai megfigyelések és előrejelzések több, mint 4000 repülőtéren (METAR és TAF jelentéseket).

A térképen piros és sárga pontok jelzik az elérhető meteorológiai állomásokat.

Mozgassa az egeret a pont fölött, hogy megjelenjen az állomás neve.

Azután kattintson az időjárási megfigyelések és előrejelzések megtekintéséhez.

A térkép megváltoztatása: kattintson a fekete keresztel jelölt zöld gombra ráközelítéshez, a vonallal jelölt zöld gombra távolításhoz, vagy a zöld nyilakra a szomszédos térképek eléréséhez.


METAR-TAF: